Time;durP1;ratioP1;P1;durP2;ratioP2;P2;SDS_P1;SDS_P2;PMS_P1;PMS_P2;Temp;Humidity;BMP_temperature;BMP_pressure;BME280_temperature;BME280_humidity;BME280_pressure;Samples;Min_cycle;Max_cycle;Signal;HPM_P1;HPM_P2
2021/10/08 00:00:46;;;;;;;5.65;2.83;;;;;;;;;;4987683;28;20026;-46
2021/10/08 00:03:11;;;;;;;14.52;3.45;;;;;;;;;;4985193;28;20022;-43
2021/10/08 00:05:36;;;;;;;11.65;3.53;;;;;;;;;;4991625;28;20015;-43
2021/10/08 00:08:02;;;;;;;2.92;1.85;;;;;;;;;;4990882;28;20034;-43
2021/10/08 00:10:27;;;;;;;16.02;3.90;;;;;;;;;;4981150;28;20398;-48
2021/10/08 00:12:53;;;;;;;5.50;3.30;;;;;;;;;;4988840;28;20053;-45
2021/10/08 00:15:18;;;;;;;8.90;3.70;;;;;;;;;;4993943;28;20089;-43
2021/10/08 00:17:43;;;;;;;4.78;2.85;;;;;;;;;;4991830;28;20057;-48
2021/10/08 00:20:09;;;;;;;9.45;3.78;;;;;;;;;;4989277;28;20026;-44
2021/10/08 00:22:34;;;;;;;10.18;3.35;;;;;;;;;;4991429;28;20018;-45
2021/10/08 00:25:00;;;;;;;5.05;3.65;;;;;;;;;;4993032;28;20098;-45
2021/10/08 00:27:25;;;;;;;4.03;3.08;;;;;;;;;;4994275;28;20151;-42
2021/10/08 00:29:50;;;;;;;6.90;3.53;;;;;;;;;;4988948;28;20395;-44
2021/10/08 00:32:15;;;;;;;4.38;2.78;;;;;;;;;;4991624;28;20022;-43
2021/10/08 00:34:41;;;;;;;8.13;2.53;;;;;;;;;;4992850;28;20176;-44
2021/10/08 00:37:06;;;;;;;8.30;2.03;;;;;;;;;;4987856;28;20045;-44
2021/10/08 00:39:31;;;;;;;4.93;2.90;;;;;;;;;;4988740;28;20026;-42
2021/10/08 00:41:57;;;;;;;8.50;3.03;;;;;;;;;;4989325;28;20030;-44
2021/10/08 00:44:22;;;;;;;5.40;2.83;;;;;;;;;;4988792;28;20338;-43
2021/10/08 00:46:47;;;;;;;4.68;2.85;;;;;;;;;;4988310;28;20556;-42
2021/10/08 00:49:13;;;;;;;7.70;4.10;;;;;;;;;;4988978;28;20497;-44
2021/10/08 00:51:38;;;;;;;7.80;3.58;;;;;;;;;;4992780;28;20077;-44
2021/10/08 00:54:03;;;;;;;11.27;4.00;;;;;;;;;;4986613;28;20105;-48
2021/10/08 00:56:30;;;;;;;3.90;2.72;;;;;;;;;;4991026;28;20023;-47
2021/10/08 00:58:55;;;;;;;7.40;3.15;;;;;;;;;;4990515;28;20669;-43
2021/10/08 01:01:21;;;;;;;10.00;3.88;;;;;;;;;;4987136;28;20037;-42
2021/10/08 01:03:46;;;;;;;8.80;3.30;;;;;;;;;;4989629;28;20092;-43
2021/10/08 01:06:11;;;;;;;5.22;3.42;;;;;;;;;;4989610;28;20029;-43
2021/10/08 01:08:37;;;;;;;12.88;4.55;;;;;;;;;;4986606;28;20022;-44
2021/10/08 01:11:03;;;;;;;4.97;3.50;;;;;;;;;;4988380;28;20019;-46
2021/10/08 01:13:28;;;;;;;20.35;3.65;;;;;;;;;;4990811;28;20022;-46
2021/10/08 01:15:54;;;;;;;2.58;1.80;;;;;;;;;;4982895;28;20025;-47
2021/10/08 01:18:20;;;;;;;5.47;2.75;;;;;;;;;;4989474;28;20052;-44
2021/10/08 01:20:45;;;;;;;4.15;2.63;;;;;;;;;;4991683;28;20482;-42
2021/10/08 01:23:10;;;;;;;8.35;3.42;;;;;;;;;;4990171;28;20513;-44
2021/10/08 01:25:35;;;;;;;9.55;3.78;;;;;;;;;;4991760;28;20562;-47
2021/10/08 01:28:02;;;;;;;3.22;2.53;;;;;;;;;;4990291;28;20667;-42
2021/10/08 01:30:27;;;;;;;9.00;3.60;;;;;;;;;;4981752;28;20027;-42
2021/10/08 01:32:53;;;;;;;5.93;2.95;;;;;;;;;;4982395;28;20140;-43
2021/10/08 01:35:18;;;;;;;7.40;2.83;;;;;;;;;;4991335;28;20488;-44
2021/10/08 01:37:44;;;;;;;2.97;2.40;;;;;;;;;;4993311;28;20030;-48
2021/10/08 01:40:09;;;;;;;6.03;3.58;;;;;;;;;;4991249;28;20022;-42
2021/10/08 01:42:35;;;;;;;4.22;2.47;;;;;;;;;;4987518;28;20321;-45
2021/10/08 01:45:00;;;;;;;4.75;2.80;;;;;;;;;;4982315;28;20042;-48
2021/10/08 01:47:26;;;;;;;4.43;2.75;;;;;;;;;;4990217;28;20018;-42
2021/10/08 01:49:51;;;;;;;4.68;2.50;;;;;;;;;;4990403;28;20033;-42
2021/10/08 01:52:17;;;;;;;11.43;2.15;;;;;;;;;;4988619;28;20024;-43
2021/10/08 01:54:42;;;;;;;12.50;2.28;;;;;;;;;;4990725;28;20062;-47
2021/10/08 01:57:07;;;;;;;5.05;2.78;;;;;;;;;;4991662;28;20242;-43
2021/10/08 01:59:33;;;;;;;3.03;2.28;;;;;;;;;;4987607;28;20030;-44
2021/10/08 02:01:58;;;;;;;7.55;2.45;;;;;;;;;;4991244;28;20326;-43
2021/10/08 02:04:23;;;;;;;3.35;2.17;;;;;;;;;;4984881;28;20022;-43
2021/10/08 02:06:49;;;;;;;3.97;2.95;;;;;;;;;;4994884;28;20021;-45
2021/10/08 02:09:15;;;;;;;6.13;3.42;;;;;;;;;;4993802;28;20489;-43
2021/10/08 02:11:40;;;;;;;5.35;3.10;;;;;;;;;;4995462;28;20112;-44
2021/10/08 02:14:06;;;;;;;3.83;1.88;;;;;;;;;;4994879;28;20622;-42
2021/10/08 02:16:31;;;;;;;20.42;3.58;;;;;;;;;;4993223;28;20104;-44
2021/10/08 02:19:07;;;;;;;2.28;1.38;;;;;;;;;;4989454;28;20067;-44
2021/10/08 02:21:41;;;;;;;7.38;1.60;;;;;;;;;;4990058;28;20079;-50
2021/10/08 02:24:15;;;;;;;2.78;1.42;;;;;;;;;;4993829;28;20839;-43
2021/10/08 02:26:42;;;;;;;1.05;0.75;;;;;;;;;;4990229;28;20022;-42
2021/10/08 02:29:07;;;;;;;2.95;2.28;;;;;;;;;;4985284;28;20043;-45
2021/10/08 02:31:37;;;;;;;5.63;2.35;;;;;;;;;;4986059;28;20083;-41
2021/10/08 02:34:03;;;;;;;7.13;1.75;;;;;;;;;;4992830;28;20029;-42
2021/10/08 02:36:28;;;;;;;6.32;3.17;;;;;;;;;;4990422;28;20019;-43
2021/10/08 02:38:54;;;;;;;2.95;1.88;;;;;;;;;;4995071;28;20026;-42
2021/10/08 02:41:20;;;;;;;7.00;3.47;;;;;;;;;;4988947;28;20034;-43
2021/10/08 02:43:45;;;;;;;2.28;1.58;;;;;;;;;;4985251;28;20085;-43
2021/10/08 02:46:10;;;;;;;15.82;2.72;;;;;;;;;;4996476;28;20105;-43
2021/10/08 02:48:36;;;;;;;3.13;1.73;;;;;;;;;;4994103;28;20022;-42
2021/10/08 02:51:02;;;;;;;8.35;2.60;;;;;;;;;;4995863;28;20395;-42
2021/10/08 02:53:28;;;;;;;12.75;1.67;;;;;;;;;;4990276;28;20097;-47
2021/10/08 02:55:53;;;;;;;1.15;1.05;;;;;;;;;;4991528;28;20015;-43
2021/10/08 02:58:18;;;;;;;11.02;2.08;;;;;;;;;;4995768;28;20030;-44
2021/10/08 03:00:44;;;;;;;8.73;3.08;;;;;;;;;;4989983;28;20097;-45
2021/10/08 03:03:09;;;;;;;1.73;1.42;;;;;;;;;;4990322;28;20023;-42
2021/10/08 03:05:34;;;;;;;10.63;3.10;;;;;;;;;;4992957;28;20034;-44
2021/10/08 03:07:59;;;;;;;5.50;2.85;;;;;;;;;;4991842;28;20117;-47
2021/10/08 03:10:25;;;;;;;3.00;1.95;;;;;;;;;;4988444;28;20029;-43
2021/10/08 03:12:50;;;;;;;3.35;2.17;;;;;;;;;;4990930;28;20026;-44
2021/10/08 03:15:16;;;;;;;2.42;1.60;;;;;;;;;;4994535;28;20014;-44
2021/10/08 03:17:41;;;;;;;5.88;2.53;;;;;;;;;;4989340;28;20762;-45
2021/10/08 03:20:07;;;;;;;5.05;3.53;;;;;;;;;;4991066;28;20034;-50
2021/10/08 03:22:33;;;;;;;4.90;3.20;;;;;;;;;;4990760;28;20034;-47
2021/10/08 03:24:58;;;;;;;6.40;2.65;;;;;;;;;;4993532;28;20028;-49
2021/10/08 03:27:24;;;;;;;11.05;2.88;;;;;;;;;;4994118;28;20121;-50
2021/10/08 03:29:49;;;;;;;10.80;2.58;;;;;;;;;;4993922;28;20045;-46
2021/10/08 03:32:14;;;;;;;4.32;1.30;;;;;;;;;;4990419;28;20477;-48
2021/10/08 03:34:40;;;;;;;11.23;4.63;;;;;;;;;;4988665;28;20108;-50
2021/10/08 03:37:08;;;;;;;2.03;1.63;;;;;;;;;;4989336;28;20438;-48
2021/10/08 03:39:37;;;;;;;9.85;2.30;;;;;;;;;;4993553;28;20036;-44
2021/10/08 03:42:04;;;;;;;4.50;2.22;;;;;;;;;;4992510;28;20066;-46
2021/10/08 03:44:34;;;;;;;6.55;2.33;;;;;;;;;;4990921;28;20080;-47
2021/10/08 03:47:00;;;;;;;6.30;1.10;;;;;;;;;;4990500;28;20029;-50
2021/10/08 03:49:28;;;;;;;4.60;2.15;;;;;;;;;;4991125;28;20018;-48
2021/10/08 03:51:53;;;;;;;3.78;1.10;;;;;;;;;;4991423;28;20116;-46
2021/10/08 03:54:20;;;;;;;6.38;1.10;;;;;;;;;;4990589;28;20018;-46
2021/10/08 03:56:46;;;;;;;4.22;1.42;;;;;;;;;;4992152;28;20045;-46
2021/10/08 03:59:11;;;;;;;1.63;1.35;;;;;;;;;;4989154;28;20026;-44
2021/10/08 04:01:37;;;;;;;1.60;1.00;;;;;;;;;;4990292;28;20030;-42
2021/10/08 04:04:04;;;;;;;5.20;1.73;;;;;;;;;;4991756;28;20045;-43
2021/10/08 04:06:30;;;;;;;1.40;1.13;;;;;;;;;;4989947;28;20031;-46
2021/10/08 04:08:55;;;;;;;2.25;1.67;;;;;;;;;;4992261;28;20528;-47
2021/10/08 04:11:23;;;;;;;5.47;1.75;;;;;;;;;;4992502;28;20490;-43
2021/10/08 04:13:54;;;;;;;4.07;1.73;;;;;;;;;;4990743;28;20027;-42
2021/10/08 04:16:19;;;;;;;12.80;1.85;;;;;;;;;;4991142;28;20033;-46
2021/10/08 04:18:45;;;;;;;8.57;3.00;;;;;;;;;;4992654;28;20030;-43
2021/10/08 04:21:10;;;;;;;4.03;2.35;;;;;;;;;;4989436;28;20023;-42
2021/10/08 04:23:35;;;;;;;5.65;2.58;;;;;;;;;;4985391;28;20021;-43
2021/10/08 04:26:01;;;;;;;6.78;3.15;;;;;;;;;;4993744;28;20492;-44
2021/10/08 04:28:26;;;;;;;5.45;2.53;;;;;;;;;;4992078;28;20033;-45
2021/10/08 04:30:51;;;;;;;7.20;2.90;;;;;;;;;;4991282;28;20025;-45
2021/10/08 04:33:18;;;;;;;3.85;2.83;;;;;;;;;;4991829;28;20037;-46
2021/10/08 04:35:44;;;;;;;6.25;3.03;;;;;;;;;;4986502;28;20029;-48
2021/10/08 04:38:09;;;;;;;1.95;1.48;;;;;;;;;;4992503;28;20387;-44
2021/10/08 04:40:34;;;;;;;7.47;2.55;;;;;;;;;;4988672;28;20026;-44
2021/10/08 04:43:00;;;;;;;18.02;2.47;;;;;;;;;;4986603;28;20019;-45
2021/10/08 04:45:25;;;;;;;5.03;1.63;;;;;;;;;;4984853;28;20504;-48
2021/10/08 04:47:50;;;;;;;3.38;2.15;;;;;;;;;;4993786;28;20028;-47
2021/10/08 04:50:17;;;;;;;11.02;2.47;;;;;;;;;;4990635;28;20011;-46
2021/10/08 04:52:42;;;;;;;5.13;2.90;;;;;;;;;;4988987;28;20022;-43
2021/10/08 04:55:08;;;;;;;7.00;2.05;;;;;;;;;;4993471;28;20442;-49
2021/10/08 04:57:33;;;;;;;2.92;1.63;;;;;;;;;;4992821;28;20108;-45
2021/10/08 04:59:58;;;;;;;4.80;1.90;;;;;;;;;;4993687;28;20021;-42
2021/10/08 05:02:24;;;;;;;4.32;2.17;;;;;;;;;;4989662;28;20037;-44
2021/10/08 05:04:49;;;;;;;8.55;3.25;;;;;;;;;;4989288;28;20018;-45
2021/10/08 05:07:14;;;;;;;4.50;1.83;;;;;;;;;;4990450;28;20558;-48
2021/10/08 05:09:40;;;;;;;4.20;2.28;;;;;;;;;;4993193;28;20021;-50
2021/10/08 05:12:05;;;;;;;4.90;2.67;;;;;;;;;;4987916;28;20031;-44
2021/10/08 05:14:30;;;;;;;10.02;1.38;;;;;;;;;;4987961;28;20057;-47
2021/10/08 05:16:55;;;;;;;6.28;2.15;;;;;;;;;;4987396;28;20559;-49
2021/10/08 05:19:21;;;;;;;7.57;2.15;;;;;;;;;;4985984;28;20532;-43
2021/10/08 05:21:48;;;;;;;12.07;6.55;;;;;;;;;;4986261;28;20045;-45
2021/10/08 05:24:15;;;;;;;13.88;3.50;;;;;;;;;;4987665;28;20079;-44
2021/10/08 05:26:40;;;;;;;4.25;1.35;;;;;;;;;;4988011;28;20057;-49
2021/10/08 05:29:05;;;;;;;6.97;2.30;;;;;;;;;;4985264;28;20030;-46
2021/10/08 05:31:33;;;;;;;3.92;1.80;;;;;;;;;;4984137;28;20095;-48
2021/10/08 05:33:58;;;;;;;3.38;1.70;;;;;;;;;;4995302;28;20026;-48
2021/10/08 05:36:24;;;;;;;3.35;2.17;;;;;;;;;;4989680;28;20022;-45
2021/10/08 05:38:49;;;;;;;11.38;3.45;;;;;;;;;;4999156;28;20098;-45
2021/10/08 05:41:14;;;;;;;4.40;1.48;;;;;;;;;;4994230;28;20433;-47
2021/10/08 05:43:39;;;;;;;9.20;1.98;;;;;;;;;;4994229;28;20129;-47
2021/10/08 05:46:05;;;;;;;6.07;1.92;;;;;;;;;;4995159;28;20037;-45
2021/10/08 05:48:30;;;;;;;6.30;3.05;;;;;;;;;;4994504;28;20082;-47
2021/10/08 05:50:55;;;;;;;9.73;4.32;;;;;;;;;;4991225;28;20239;-47
2021/10/08 05:53:21;;;;;;;4.18;2.30;;;;;;;;;;4995672;28;20014;-47
2021/10/08 05:55:46;;;;;;;12.82;6.78;;;;;;;;;;4992656;28;20022;-44
2021/10/08 05:58:11;;;;;;;14.93;13.52;;;;;;;;;;4992380;28;20028;-44
2021/10/08 06:00:40;;;;;;;17.25;15.45;;;;;;;;;;4988896;28;20544;-43
2021/10/08 06:03:05;;;;;;;15.88;14.27;;;;;;;;;;4993464;28;20025;-46
2021/10/08 06:05:38;;;;;;;19.02;9.95;;;;;;;;;;4992136;28;20725;-46
2021/10/08 06:08:04;;;;;;;7.18;4.75;;;;;;;;;;4992203;28;20022;-47
2021/10/08 06:10:29;;;;;;;8.95;4.43;;;;;;;;;;4992481;28;20357;-45
2021/10/08 06:12:54;;;;;;;3.50;2.78;;;;;;;;;;4991006;28;20107;-43
2021/10/08 06:15:20;;;;;;;11.30;3.95;;;;;;;;;;4991981;28;20595;-46
2021/10/08 06:17:45;;;;;;;8.13;3.72;;;;;;;;;;4990691;28;20130;-41
2021/10/08 06:20:11;;;;;;;7.78;3.55;;;;;;;;;;4991522;28;20564;-43
2021/10/08 06:22:36;;;;;;;8.32;4.60;;;;;;;;;;4996759;28;20022;-43
2021/10/08 06:25:05;;;;;;;10.18;3.38;;;;;;;;;;4995919;28;20030;-39
2021/10/08 06:27:31;;;;;;;9.05;4.07;;;;;;;;;;4992806;28;20034;-40
2021/10/08 06:29:57;;;;;;;4.15;2.20;;;;;;;;;;4992041;28;20091;-43
2021/10/08 06:32:22;;;;;;;14.60;3.13;;;;;;;;;;4993286;28;20031;-40
2021/10/08 06:34:47;;;;;;;18.00;3.03;;;;;;;;;;4990740;28;20118;-41
2021/10/08 06:37:12;;;;;;;6.38;3.17;;;;;;;;;;4989010;28;20030;-43
2021/10/08 06:39:38;;;;;;;13.85;4.07;;;;;;;;;;4998656;28;20083;-42
2021/10/08 06:42:03;;;;;;;9.57;4.55;;;;;;;;;;4992498;28;20034;-44
2021/10/08 06:44:28;;;;;;;11.40;4.35;;;;;;;;;;4993334;28;20058;-42
2021/10/08 06:46:54;;;;;;;13.63;7.28;;;;;;;;;;4995128;28;20056;-43
2021/10/08 06:49:19;;;;;;;27.70;13.98;;;;;;;;;;4991944;28;20098;-41
2021/10/08 06:51:44;;;;;;;17.58;13.40;;;;;;;;;;4995544;28;20031;-42
2021/10/08 06:54:10;;;;;;;27.95;17.80;;;;;;;;;;4991849;28;20703;-39
2021/10/08 06:56:35;;;;;;;27.35;17.70;;;;;;;;;;4993051;28;20026;-38
2021/10/08 06:59:00;;;;;;;35.35;25.27;;;;;;;;;;4990473;28;20052;-39
2021/10/08 07:01:25;;;;;;;39.33;34.17;;;;;;;;;;4986170;28;20758;-41
2021/10/08 07:03:51;;;;;;;37.63;32.25;;;;;;;;;;4986861;28;20653;-47
2021/10/08 07:06:16;;;;;;;30.13;26.30;;;;;;;;;;4985399;28;20133;-41
2021/10/08 07:08:42;;;;;;;41.60;29.83;;;;;;;;;;4991690;28;20025;-40
2021/10/08 07:11:07;;;;;;;36.80;29.90;;;;;;;;;;4990676;28;20044;-41
2021/10/08 07:13:32;;;;;;;41.78;32.88;;;;;;;;;;4993062;28;20021;-43
2021/10/08 07:15:59;;;;;;;42.40;23.20;;;;;;;;;;4989769;28;20030;-42
2021/10/08 07:18:33;;;;;;;32.58;24.00;;;;;;;;;;4989768;28;20867;-42
2021/10/08 07:20:58;;;;;;;63.50;36.85;;;;;;;;;;4991618;28;20091;-40
2021/10/08 07:23:24;;;;;;;68.50;61.22;;;;;;;;;;4989133;28;20021;-44
2021/10/08 07:25:49;;;;;;;98.28;80.00;;;;;;;;;;4989770;28;20530;-41
2021/10/08 07:28:16;;;;;;;103.32;77.00;;;;;;;;;;4992739;28;20434;-41
2021/10/08 07:30:41;;;;;;;84.68;74.80;;;;;;;;;;4993029;28;20462;-42
2021/10/08 07:33:07;;;;;;;95.50;81.30;;;;;;;;;;4990307;28;20033;-40
2021/10/08 07:35:32;;;;;;;109.18;97.25;;;;;;;;;;4987607;28;20038;-41
2021/10/08 07:37:57;;;;;;;115.18;94.43;;;;;;;;;;4986920;28;20026;-41
2021/10/08 07:40:23;;;;;;;106.25;91.47;;;;;;;;;;4987756;28;20041;-45
2021/10/08 07:42:48;;;;;;;118.28;86.60;;;;;;;;;;4987878;28;20557;-43
2021/10/08 07:45:13;;;;;;;78.40;70.05;;;;;;;;;;4988848;28;20054;-46
2021/10/08 07:47:39;;;;;;;109.55;75.65;;;;;;;;;;4990298;28;20727;-45
2021/10/08 07:50:05;;;;;;;76.63;67.15;;;;;;;;;;4985575;28;20028;-45
2021/10/08 07:52:30;;;;;;;68.95;44.67;;;;;;;;;;4991618;28;20057;-44
2021/10/08 07:54:56;;;;;;;22.58;19.13;;;;;;;;;;4986917;28;20483;-44
2021/10/08 07:57:21;;;;;;;19.58;14.13;;;;;;;;;;4990927;28;20391;-45
2021/10/08 07:59:46;;;;;;;21.17;17.73;;;;;;;;;;4988389;28;20079;-42
2021/10/08 08:02:12;;;;;;;18.13;15.02;;;;;;;;;;4986580;28;20189;-41
2021/10/08 08:04:37;;;;;;;17.33;12.07;;;;;;;;;;4987850;28;20558;-43
2021/10/08 08:07:03;;;;;;;33.90;19.58;;;;;;;;;;4990350;28;20176;-44
2021/10/08 08:09:29;;;;;;;26.05;21.25;;;;;;;;;;4987942;28;20164;-41
2021/10/08 08:11:54;;;;;;;32.38;25.25;;;;;;;;;;4993645;28;20109;-42
2021/10/08 08:14:19;;;;;;;27.42;21.27;;;;;;;;;;4985617;28;20029;-42
2021/10/08 08:16:45;;;;;;;22.17;19.67;;;;;;;;;;4992324;28;20030;-40
2021/10/08 08:19:11;;;;;;;38.63;34.90;;;;;;;;;;4990620;28;20099;-41
2021/10/08 08:21:37;;;;;;;20.77;18.65;;;;;;;;;;4986889;28;20643;-42
2021/10/08 08:24:02;;;;;;;21.25;19.27;;;;;;;;;;4987998;28;20133;-43
2021/10/08 08:26:27;;;;;;;19.77;17.70;;;;;;;;;;4989768;28;20139;-46
2021/10/08 08:28:53;;;;;;;8.43;7.53;;;;;;;;;;4984357;28;20075;-42
2021/10/08 08:31:18;;;;;;;18.73;16.05;;;;;;;;;;4985444;28;20136;-44
2021/10/08 08:33:43;;;;;;;15.13;8.25;;;;;;;;;;4991097;28;20105;-41
2021/10/08 08:36:09;;;;;;;43.85;12.95;;;;;;;;;;4989690;28;20045;-43
2021/10/08 08:38:34;;;;;;;20.70;10.65;;;;;;;;;;4988844;28;20033;-43
2021/10/08 08:41:00;;;;;;;9.85;6.93;;;;;;;;;;4986355;28;20049;-43
2021/10/08 08:43:26;;;;;;;6.18;4.32;;;;;;;;;;4985721;28;20049;-44
2021/10/08 08:45:51;;;;;;;11.15;4.55;;;;;;;;;;4989700;28;20018;-44
2021/10/08 08:48:17;;;;;;;9.18;2.95;;;;;;;;;;4986332;28;20498;-42
2021/10/08 08:50:46;;;;;;;70.50;15.10;;;;;;;;;;4989428;28;20536;-42
2021/10/08 08:53:12;;;;;;;6.20;2.58;;;;;;;;;;4986836;28;20022;-41
2021/10/08 08:55:37;;;;;;;4.03;2.85;;;;;;;;;;4985089;28;20116;-44
2021/10/08 08:58:03;;;;;;;2.40;1.52;;;;;;;;;;4986031;28;20042;-43
2021/10/08 09:00:28;;;;;;;19.90;2.83;;;;;;;;;;4984374;28;20427;-42
2021/10/08 09:02:57;;;;;;;3.15;1.65;;;;;;;;;;4986836;28;20045;-41
2021/10/08 09:05:27;;;;;;;3.80;1.13;;;;;;;;;;4983699;28;20718;-45
2021/10/08 09:07:57;;;;;;;2.60;1.20;;;;;;;;;;4981622;28;20031;-41
2021/10/08 09:10:25;;;;;;;4.85;1.80;;;;;;;;;;4986972;28;20032;-43
2021/10/08 09:12:53;;;;;;;6.72;3.20;;;;;;;;;;4984900;28;20120;-43
2021/10/08 09:15:19;;;;;;;7.45;2.67;;;;;;;;;;4986349;28;20026;-42
2021/10/08 09:17:45;;;;;;;7.07;1.85;;;;;;;;;;4988329;28;20061;-41
2021/10/08 09:20:12;;;;;;;29.10;2.88;;;;;;;;;;4986945;28;20040;-42
2021/10/08 09:22:38;;;;;;;3.78;2.67;;;;;;;;;;4993020;28;20030;-43
2021/10/08 09:25:12;;;;;;;4.22;1.85;;;;;;;;;;4991747;28;20147;-42
2021/10/08 09:27:39;;;;;;;10.55;2.10;;;;;;;;;;4986106;28;20046;-45
2021/10/08 09:30:05;;;;;;;5.75;1.70;;;;;;;;;;4988012;28;20026;-40
2021/10/08 09:32:38;;;;;;;9.05;2.58;;;;;;;;;;4990320;28;20010;-43
2021/10/08 09:35:05;;;;;;;5.57;3.88;;;;;;;;;;4993710;28;20026;-43
2021/10/08 09:37:31;;;;;;;6.25;2.92;;;;;;;;;;4985789;28;20117;-44
2021/10/08 09:39:56;;;;;;;2.65;1.80;;;;;;;;;;4983259;28;20109;-42
2021/10/08 09:42:29;;;;;;;6.65;2.55;;;;;;;;;;4985751;28;20291;-41
2021/10/08 09:44:56;;;;;;;4.18;2.47;;;;;;;;;;4984665;28;20080;-44
2021/10/08 09:47:23;;;;;;;5.35;2.83;;;;;;;;;;4985546;28;20030;-47
2021/10/08 09:49:50;;;;;;;9.18;3.45;;;;;;;;;;4987429;28;20097;-45
2021/10/08 09:52:21;;;;;;;3.15;1.77;;;;;;;;;;4993745;28;20700;-42
2021/10/08 09:54:50;;;;;;;8.77;4.93;;;;;;;;;;4985917;28;20041;-42
2021/10/08 09:57:15;;;;;;;4.45;2.33;;;;;;;;;;4985175;28;20031;-44
2021/10/08 09:59:41;;;;;;;5.90;1.95;;;;;;;;;;4984046;28;20113;-43
2021/10/08 10:02:06;;;;;;;3.92;1.52;;;;;;;;;;4984907;28;20034;-40
2021/10/08 10:04:48;;;;;;;8.63;3.13;;;;;;;;;;4986664;28;20385;-41
2021/10/08 10:07:14;;;;;;;3.55;2.40;;;;;;;;;;4985614;28;20802;-44
2021/10/08 10:09:39;;;;;;;5.43;2.78;;;;;;;;;;4979883;28;20034;-41
2021/10/08 10:12:06;;;;;;;7.38;3.67;;;;;;;;;;4990339;28;20088;-41
2021/10/08 10:14:32;;;;;;;5.28;2.70;;;;;;;;;;4985167;28;20025;-42
2021/10/08 10:16:57;;;;;;;4.72;3.63;;;;;;;;;;4983841;28;20708;-40
2021/10/08 10:19:23;;;;;;;3.47;2.58;;;;;;;;;;4983774;28;20497;-44
2021/10/08 10:21:49;;;;;;;8.25;3.35;;;;;;;;;;4990541;28;20479;-45
2021/10/08 10:24:14;;;;;;;7.43;3.00;;;;;;;;;;4986699;28;20500;-43
2021/10/08 10:26:39;;;;;;;22.75;5.70;;;;;;;;;;4988281;28;20084;-46
2021/10/08 10:29:07;;;;;;;9.77;2.85;;;;;;;;;;4987957;28;20101;-42
2021/10/08 10:31:33;;;;;;;3.33;1.33;;;;;;;;;;4988438;28;20026;-41
2021/10/08 10:34:01;;;;;;;5.72;2.65;;;;;;;;;;4987206;28;20444;-40
2021/10/08 10:36:27;;;;;;;4.35;1.23;;;;;;;;;;4992706;28;20022;-43
2021/10/08 10:39:11;;;;;;;2.65;1.02;;;;;;;;;;4987297;28;20084;-40
2021/10/08 10:41:37;;;;;;;6.90;1.52;;;;;;;;;;4996332;28;20732;-40
2021/10/08 10:44:13;;;;;;;3.08;1.30;;;;;;;;;;4995511;28;20046;-41
2021/10/08 10:46:50;;;;;;;7.45;2.35;;;;;;;;;;4992707;28;20022;-40
2021/10/08 10:51:59;;;;;;;1.00;0.75;;;;;;;;;;4996788;28;20026;-40
2021/10/08 10:54:35;;;;;;;4.05;0.93;;;;;;;;;;4990153;28;20643;-39
2021/10/08 10:57:01;;;;;;;6.43;1.50;;;;;;;;;;4990720;28;20033;-40
2021/10/08 10:59:27;;;;;;;2.50;0.90;;;;;;;;;;4994844;28;20078;-40
2021/10/08 11:02:08;;;;;;;2.30;0.73;;;;;;;;;;4994500;28;20026;-45
2021/10/08 11:04:46;;;;;;;3.42;1.52;;;;;;;;;;4987854;28;20026;-44
2021/10/08 11:07:12;;;;;;;3.33;1.55;;;;;;;;;;4993190;28;20036;-44
2021/10/08 11:09:38;;;;;;;2.17;1.25;;;;;;;;;;4994045;28;20021;-41
2021/10/08 11:12:22;;;;;;;13.98;2.58;;;;;;;;;;4992761;28;20078;-41
2021/10/08 11:14:47;;;;;;;1.00;0.73;;;;;;;;;;4985004;28;20023;-44
2021/10/08 11:17:31;;;;;;;5.93;1.08;;;;;;;;;;4991622;28;20539;-43
2021/10/08 11:19:57;;;;;;;5.05;1.35;;;;;;;;;;4990759;28;20018;-41
2021/10/08 11:22:40;;;;;;;7.30;1.67;;;;;;;;;;4994922;28;20018;-41
2021/10/08 11:25:06;;;;;;;12.93;3.22;;;;;;;;;;4992505;28;20061;-41
2021/10/08 11:27:32;;;;;;;3.80;0.85;;;;;;;;;;4988670;28;20470;-42
2021/10/08 11:30:01;;;;;;;6.82;1.77;;;;;;;;;;4989346;28;20056;-42
2021/10/08 11:32:27;;;;;;;4.60;1.55;;;;;;;;;;4989613;28;20022;-43
2021/10/08 11:34:53;;;;;;;10.35;1.05;;;;;;;;;;4991754;28;20887;-41
2021/10/08 11:37:19;;;;;;;4.22;1.45;;;;;;;;;;4985771;28;20053;-40
2021/10/08 11:39:46;;;;;;;4.10;1.23;;;;;;;;;;4990081;28;20522;-41
2021/10/08 11:42:14;;;;;;;1.45;0.55;;;;;;;;;;4992096;28;20025;-40
2021/10/08 11:47:54;;;;;;;1.67;0.80;;;;;;;;;;4991074;28;20502;-43
2021/10/08 11:53:13;;;;;;;5.30;1.83;;;;;;;;;;5035070;28;20040;-47
2021/10/08 11:55:39;;;;;;;5.30;0.90;;;;;;;;;;5000541;28;20030;-42
2021/10/08 11:58:07;;;;;;;2.65;0.60;;;;;;;;;;4989250;28;20474;-47
2021/10/08 12:00:38;;;;;;;1.80;0.98;;;;;;;;;;4988572;28;20037;-44
2021/10/08 12:03:05;;;;;;;1.88;0.73;;;;;;;;;;4989370;28;20027;-40
2021/10/08 12:05:40;;;;;;;2.78;1.60;;;;;;;;;;4992190;28;20022;-46
2021/10/08 12:08:05;;;;;;;2.25;1.40;;;;;;;;;;4986029;28;20014;-41
2021/10/08 12:10:30;;;;;;;3.97;2.17;;;;;;;;;;4995727;28;20042;-42
2021/10/08 12:12:57;;;;;;;4.63;1.52;;;;;;;;;;4989631;28;20030;-41
2021/10/08 12:15:22;;;;;;;7.07;3.70;;;;;;;;;;4984214;28;20026;-42
2021/10/08 12:17:48;;;;;;;3.92;2.35;;;;;;;;;;4992032;28;20028;-46
2021/10/08 12:20:21;;;;;;;3.65;1.45;;;;;;;;;;4991206;28;20172;-46
2021/10/08 12:22:46;;;;;;;8.38;2.85;;;;;;;;;;4996487;28;20026;-46
2021/10/08 12:25:11;;;;;;;1.80;0.80;;;;;;;;;;4993686;28;20482;-41
2021/10/08 12:27:37;;;;;;;7.78;2.22;;;;;;;;;;4989692;28;20027;-44
2021/10/08 12:30:03;;;;;;;4.20;1.35;;;;;;;;;;4994312;28;20049;-47
2021/10/08 12:32:28;;;;;;;4.18;1.38;;;;;;;;;;4994300;28;20100;-42
2021/10/08 12:34:54;;;;;;;2.58;1.15;;;;;;;;;;4986792;28;20600;-44
2021/10/08 12:37:32;;;;;;;1.58;0.73;;;;;;;;;;4990129;28;20642;-40
2021/10/08 12:40:13;;;;;;;3.67;1.33;;;;;;;;;;4992910;28;20061;-46
2021/10/08 12:42:50;;;;;;;8.13;1.23;;;;;;;;;;4988025;28;20025;-44
2021/10/08 12:45:23;;;;;;;1.95;1.27;;;;;;;;;;4990602;28;20507;-46
2021/10/08 12:47:49;;;;;;;8.90;1.20;;;;;;;;;;4992251;28;20614;-43
2021/10/08 12:50:16;;;;;;;1.55;0.93;;;;;;;;;;4987970;28;20030;-47
2021/10/08 12:52:47;;;;;;;6.75;1.70;;;;;;;;;;4988676;28;20014;-41
2021/10/08 12:55:18;;;;;;;2.75;1.00;;;;;;;;;;4991837;28;20030;-43
2021/10/08 12:58:00;;;;;;;3.50;1.00;;;;;;;;;;4988671;28;20036;-44
2021/10/08 13:00:32;;;;;;;4.03;1.85;;;;;;;;;;4993697;28;20439;-45
2021/10/08 13:02:57;;;;;;;6.93;2.65;;;;;;;;;;4988493;28;20038;-45
2021/10/08 13:05:23;;;;;;;6.47;2.20;;;;;;;;;;4985613;28;20037;-40
2021/10/08 13:08:08;;;;;;;8.45;4.78;;;;;;;;;;4991863;28;20082;-44
2021/10/08 13:10:33;;;;;;;3.10;1.92;;;;;;;;;;4987267;28;20018;-43
2021/10/08 13:12:58;;;;;;;1.65;0.80;;;;;;;;;;4991369;28;20100;-44
2021/10/08 13:15:24;;;;;;;1.83;0.77;;;;;;;;;;4990177;28;20018;-40
2021/10/08 13:18:06;;;;;;;10.50;1.20;;;;;;;;;;4987627;28;20026;-50
2021/10/08 13:20:32;;;;;;;3.42;1.38;;;;;;;;;;4991259;28;20014;-42
2021/10/08 13:22:57;;;;;;;5.10;1.83;;;;;;;;;;4988586;28;20491;-41
2021/10/08 13:25:22;;;;;;;2.67;1.20;;;;;;;;;;4990712;28;20184;-40
2021/10/08 13:27:48;;;;;;;6.38;1.60;;;;;;;;;;4989371;28;20098;-44
2021/10/08 13:30:14;;;;;;;2.95;0.85;;;;;;;;;;4989094;28;20022;-43
2021/10/08 13:32:39;;;;;;;2.33;1.83;;;;;;;;;;4987842;28;20011;-45
2021/10/08 13:35:05;;;;;;;1.30;0.95;;;;;;;;;;4988307;28;20515;-43
2021/10/08 13:37:30;;;;;;;3.97;1.33;;;;;;;;;;4992207;28;20053;-42
2021/10/08 13:39:55;;;;;;;2.75;1.10;;;;;;;;;;4989757;28;20022;-42
2021/10/08 13:42:21;;;;;;;1.95;0.88;;;;;;;;;;4990956;28;20027;-41
2021/10/08 13:44:46;;;;;;;2.90;1.20;;;;;;;;;;4989733;28;20724;-43
2021/10/08 13:47:12;;;;;;;1.23;0.68;;;;;;;;;;4989647;28;20038;-42
2021/10/08 13:49:37;;;;;;;2.20;1.00;;;;;;;;;;4986678;28;20034;-41
2021/10/08 13:52:06;;;;;;;1.58;0.80;;;;;;;;;;4990785;28;21149;-44
2021/10/08 13:54:31;;;;;;;1.98;0.60;;;;;;;;;;4987400;28;20019;-42
2021/10/08 13:56:56;;;;;;;7.43;5.55;;;;;;;;;;4990653;28;20026;-42
2021/10/08 13:59:22;;;;;;;4.25;1.45;;;;;;;;;;4992396;28;20043;-40
2021/10/08 14:02:09;;;;;;;2.40;0.73;;;;;;;;;;4989266;28;20046;-42
2021/10/08 14:04:45;;;;;;;11.50;1.63;;;;;;;;;;4994026;28;20014;-46
2021/10/08 14:12:22;;;;;;;2.05;0.98;;;;;;;;;;4992977;28;20025;-42
2021/10/08 14:14:48;;;;;;;2.45;0.70;;;;;;;;;;4991260;28;20030;-41
2021/10/08 14:17:13;;;;;;;2.33;0.88;;;;;;;;;;4995301;28;20018;-42
2021/10/08 14:19:38;;;;;;;2.28;1.17;;;;;;;;;;4992635;28;20030;-45
2021/10/08 14:22:04;;;;;;;5.00;0.90;;;;;;;;;;4987590;28;20082;-45
2021/10/08 14:24:29;;;;;;;7.25;2.40;;;;;;;;;;4988764;28;20392;-43
2021/10/08 14:26:54;;;;;;;2.50;1.48;;;;;;;;;;4993290;28;20026;-41
2021/10/08 14:29:20;;;;;;;3.92;1.60;;;;;;;;;;4992104;28;20103;-41
2021/10/08 14:31:45;;;;;;;2.83;0.93;;;;;;;;;;4993464;28;20019;-43
2021/10/08 14:34:10;;;;;;;1.65;0.73;;;;;;;;;;4987632;28;20432;-44
2021/10/08 14:36:36;;;;;;;1.58;0.98;;;;;;;;;;4989193;28;20030;-44
2021/10/08 14:39:02;;;;;;;2.63;1.60;;;;;;;;;;4993033;28;20025;-44
2021/10/08 14:41:27;;;;;;;2.25;1.30;;;;;;;;;;4993150;28;20029;-46
2021/10/08 14:43:53;;;;;;;1.83;0.90;;;;;;;;;;4989164;28;20042;-42
2021/10/08 14:46:18;;;;;;;3.92;1.55;;;;;;;;;;4994561;28;20048;-40
2021/10/08 14:48:44;;;;;;;5.15;2.25;;;;;;;;;;4990540;28;20069;-43